createdAt,value
2022-09-30T00:00:26.713Z,1.60
2022-09-30T00:03:00.982Z,1.50
2022-09-30T00:05:29.922Z,1.70
2022-09-30T00:07:56.757Z,1.33
2022-09-30T00:10:29.428Z,1.50
2022-09-30T00:12:56.349Z,1.60
2022-09-30T00:15:28.381Z,1.60
2022-09-30T00:17:59.613Z,1.40
2022-09-30T00:20:31.280Z,1.60
2022-09-30T00:23:03.246Z,1.60
2022-09-30T00:25:30.011Z,1.70
2022-09-30T00:27:59.280Z,1.70
2022-09-30T00:30:28.808Z,1.83
2022-09-30T00:33:01.385Z,1.50
2022-09-30T00:35:31.528Z,1.80
2022-09-30T00:38:00.175Z,1.80
2022-09-30T00:40:27.806Z,1.60
2022-09-30T00:42:55.795Z,1.77
2022-09-30T00:45:34.895Z,1.80
2022-09-30T00:48:19.556Z,1.87
2022-09-30T00:50:55.538Z,1.50
2022-09-30T00:53:30.567Z,1.70
2022-09-30T00:56:14.208Z,1.33
2022-09-30T00:58:55.785Z,1.57
2022-09-30T01:01:25.815Z,1.80
2022-09-30T01:03:59.747Z,1.40
2022-09-30T01:06:29.788Z,1.90
2022-09-30T01:08:59.215Z,1.53
2022-09-30T01:11:29.305Z,1.70
2022-09-30T01:14:06.296Z,1.63
2022-09-30T01:16:51.759Z,1.73
2022-09-30T01:19:58.779Z,1.53
2022-09-30T01:22:47.875Z,1.60
2022-09-30T01:25:39.298Z,1.60
2022-09-30T01:28:06.082Z,1.53
2022-09-30T01:30:57.817Z,1.70
2022-09-30T01:34:00.020Z,1.80
2022-09-30T01:36:39.004Z,1.67
2022-09-30T01:39:41.012Z,1.70
2022-09-30T01:42:34.896Z,1.60
2022-09-30T01:45:19.893Z,1.87
2022-09-30T01:47:51.277Z,1.50
2022-09-30T01:50:28.066Z,1.70
2022-09-30T01:53:14.305Z,1.60
2022-09-30T01:56:07.430Z,1.70
2022-09-30T01:58:57.132Z,1.70
2022-09-30T02:01:55.840Z,1.73
2022-09-30T02:04:38.554Z,1.87
2022-09-30T02:07:17.291Z,1.60
2022-09-30T02:10:09.327Z,1.40
2022-09-30T02:12:48.126Z,1.70
2022-09-30T02:15:23.188Z,1.70
2022-09-30T02:17:58.526Z,1.97
2022-09-30T02:20:31.657Z,1.60
2022-09-30T02:23:11.519Z,1.80
2022-09-30T02:25:55.235Z,1.60
2022-09-30T02:28:30.810Z,1.60
2022-09-30T02:31:03.007Z,1.87
2022-09-30T02:33:46.387Z,1.90
2022-09-30T02:36:28.006Z,1.70
2022-09-30T02:39:02.748Z,1.70
2022-09-30T02:41:34.009Z,1.67
2022-09-30T02:44:08.394Z,1.67
2022-09-30T02:47:11.737Z,1.60
2022-09-30T02:50:09.092Z,2.00
2022-09-30T02:53:19.367Z,1.63
2022-09-30T02:55:49.136Z,1.70
2022-09-30T02:58:20.386Z,1.63
2022-09-30T03:00:51.113Z,1.70
2022-09-30T03:03:53.429Z,1.93
2022-09-30T03:06:23.803Z,1.73
2022-09-30T03:08:54.389Z,1.70
2022-09-30T03:11:26.788Z,1.90
2022-09-30T03:14:05.893Z,1.80
2022-09-30T03:16:57.221Z,1.43
2022-09-30T03:19:37.124Z,1.80
2022-09-30T03:22:37.796Z,1.73
2022-09-30T03:25:21.658Z,1.80
2022-09-30T03:28:09.057Z,1.80
2022-09-30T03:30:45.585Z,2.17
2022-09-30T03:33:53.929Z,1.60
2022-09-30T03:36:34.977Z,1.80
2022-09-30T03:39:28.666Z,1.77
2022-09-30T03:42:08.198Z,1.70
2022-09-30T03:44:46.614Z,2.00
2022-09-30T03:47:21.563Z,1.50
2022-09-30T03:49:52.517Z,1.70
2022-09-30T03:52:23.082Z,1.90
2022-09-30T03:54:56.423Z,1.50
2022-09-30T03:57:23.294Z,1.70
2022-09-30T03:59:56.048Z,1.50
2022-09-30T04:02:25.507Z,2.00
2022-09-30T04:04:55.579Z,1.70
2022-09-30T04:07:24.718Z,1.93
2022-09-30T04:09:51.623Z,1.90
2022-09-30T04:12:23.384Z,1.70
2022-09-30T04:14:50.336Z,1.93
2022-09-30T04:17:20.260Z,1.93
2022-09-30T04:19:47.080Z,1.97
2022-09-30T04:22:13.925Z,2.30
2022-09-30T04:24:45.362Z,1.97
2022-09-30T04:27:12.132Z,1.90
2022-09-30T04:29:43.558Z,2.03
2022-09-30T04:32:15.560Z,2.30
2022-09-30T04:34:45.147Z,2.00
2022-09-30T04:37:11.932Z,1.80
2022-09-30T04:39:41.253Z,2.00
2022-09-30T04:42:11.469Z,1.80
2022-09-30T04:44:42.942Z,2.00
2022-09-30T04:47:13.244Z,2.00
2022-09-30T04:49:42.521Z,2.10
2022-09-30T04:52:14.688Z,1.80
2022-09-30T04:54:43.729Z,2.13
2022-09-30T04:57:10.494Z,1.93
2022-09-30T04:59:37.308Z,1.80
2022-09-30T05:02:07.067Z,1.70
2022-09-30T05:04:37.075Z,1.83
2022-09-30T05:07:06.544Z,1.70
2022-09-30T05:09:33.359Z,1.80
2022-09-30T05:12:08.576Z,1.90
2022-09-30T05:14:35.791Z,1.87
2022-09-30T05:17:04.913Z,1.83
2022-09-30T05:19:34.377Z,1.90
2022-09-30T05:22:07.496Z,1.77
2022-09-30T05:24:36.956Z,1.70
2022-09-30T05:27:06.463Z,1.50
2022-09-30T05:29:33.294Z,1.63
2022-09-30T05:32:00.615Z,1.90
2022-09-30T05:34:33.199Z,1.60
2022-09-30T05:37:00.036Z,2.17
2022-09-30T05:39:29.658Z,2.00
2022-09-30T05:42:00.157Z,1.80
2022-09-30T05:44:29.330Z,1.60
2022-09-30T05:46:59.141Z,1.80
2022-09-30T05:49:29.130Z,1.60
2022-09-30T05:51:56.439Z,2.00
2022-09-30T05:54:26.264Z,1.80
2022-09-30T05:56:57.533Z,1.70
2022-09-30T05:59:26.641Z,1.60
2022-09-30T06:01:53.858Z,1.90
2022-09-30T06:04:25.307Z,1.80
2022-09-30T06:06:54.767Z,1.73
2022-09-30T06:09:27.633Z,1.70
2022-09-30T06:11:59.004Z,1.77
2022-09-30T06:14:28.923Z,1.90
2022-09-30T06:17:00.423Z,1.97
2022-09-30T06:19:34.916Z,2.00
2022-09-30T06:22:01.752Z,2.30
2022-09-30T06:24:31.282Z,1.93
2022-09-30T06:27:03.582Z,2.20
2022-09-30T06:29:30.678Z,2.10
2022-09-30T06:31:57.533Z,2.00
2022-09-30T06:34:24.667Z,2.10
2022-09-30T06:36:51.571Z,2.23
2022-09-30T06:39:19.111Z,2.20
2022-09-30T06:41:46.898Z,2.30
2022-09-30T06:44:13.890Z,2.60
2022-09-30T06:46:53.275Z,2.10
2022-09-30T06:49:21.700Z,2.33
2022-09-30T06:51:49.530Z,2.50
2022-09-30T06:54:21.098Z,2.20
2022-09-30T06:56:49.243Z,2.33
2022-09-30T06:59:23.620Z,2.97
2022-09-30T07:01:53.363Z,2.60
2022-09-30T07:04:20.228Z,2.60
2022-09-30T07:06:50.103Z,2.33
2022-09-30T07:09:21.063Z,2.77
2022-09-30T07:11:51.420Z,2.97
2022-09-30T07:14:18.335Z,3.23
2022-09-30T07:16:45.968Z,3.20
2022-09-30T07:19:18.630Z,3.60
2022-09-30T07:21:51.241Z,4.03
2022-09-30T07:24:18.452Z,3.60
2022-09-30T07:26:47.576Z,4.03
2022-09-30T07:29:20.400Z,3.80
2022-09-30T07:31:50.834Z,3.60
2022-09-30T07:34:20.531Z,3.93
2022-09-30T07:36:49.921Z,3.43
2022-09-30T07:39:21.701Z,4.00
2022-09-30T07:41:50.730Z,3.88
2022-09-30T07:44:23.527Z,4.22
2022-09-30T07:46:50.367Z,3.90
2022-09-30T07:49:24.743Z,3.75
2022-09-30T07:51:53.971Z,4.43
2022-09-30T07:54:25.848Z,4.00
2022-09-30T07:59:41.923Z,4.00
2022-09-30T08:02:15.690Z,3.93
2022-09-30T08:04:45.584Z,4.60
2022-09-30T08:07:16.150Z,4.37
2022-09-30T08:09:45.349Z,4.53
2022-09-30T08:12:12.210Z,4.17
2022-09-30T08:14:41.959Z,4.00
2022-09-30T08:17:09.087Z,4.97
2022-09-30T08:19:44.384Z,4.30
2022-09-30T08:22:15.700Z,4.30
2022-09-30T08:24:45.697Z,4.33
2022-09-30T08:27:17.394Z,4.20
2022-09-30T08:30:04.332Z,4.30
2022-09-30T08:32:34.597Z,4.80
2022-09-30T08:35:04.725Z,4.57
2022-09-30T08:37:34.835Z,4.20
2022-09-30T08:40:07.091Z,4.43
2022-09-30T08:42:52.973Z,4.93
2022-09-30T08:45:29.512Z,4.47
2022-09-30T08:48:18.317Z,4.83
2022-09-30T08:50:56.409Z,4.73
2022-09-30T08:53:31.739Z,4.50
2022-09-30T08:56:02.961Z,4.87
2022-09-30T08:58:38.701Z,5.23
2022-09-30T09:01:38.309Z,4.93
2022-09-30T09:04:06.770Z,5.07
2022-09-30T09:06:55.191Z,4.83
2022-09-30T09:09:32.727Z,4.53
2022-09-30T09:12:24.586Z,4.43
2022-09-30T09:15:23.823Z,5.00
2022-09-30T09:18:24.867Z,4.30
2022-09-30T09:21:03.521Z,5.13
2022-09-30T09:23:41.957Z,4.87
2022-09-30T09:26:13.308Z,4.23
2022-09-30T09:29:26.478Z,4.13
2022-09-30T09:31:55.726Z,4.23
2022-09-30T09:34:25.376Z,4.13
2022-09-30T09:37:06.903Z,4.50
2022-09-30T09:40:00.459Z,4.70
2022-09-30T09:43:09.609Z,4.70
2022-09-30T09:45:45.428Z,4.73
2022-09-30T09:48:17.191Z,4.17
2022-09-30T09:50:52.464Z,4.80
2022-09-30T09:53:37.093Z,4.67
2022-09-30T09:56:21.271Z,4.70
2022-09-30T09:59:09.458Z,4.90
2022-09-30T10:01:39.680Z,4.18
2022-09-30T10:04:19.966Z,4.25
2022-09-30T10:07:15.273Z,4.20
2022-09-30T10:09:43.280Z,3.90
2022-09-30T10:12:15.364Z,4.13
2022-09-30T10:14:48.449Z,4.63
2022-09-30T10:17:29.533Z,4.70
2022-09-30T10:20:23.226Z,4.80
2022-09-30T10:22:52.274Z,4.00
2022-09-30T10:25:23.537Z,3.73
2022-09-30T10:27:58.529Z,3.80
2022-09-30T10:30:36.724Z,3.83
2022-09-30T10:33:04.404Z,3.83
2022-09-30T10:35:34.240Z,3.47
2022-09-30T10:38:01.531Z,3.57
2022-09-30T10:40:30.366Z,3.37
2022-09-30T10:42:58.495Z,3.57
2022-09-30T10:45:38.553Z,3.63
2022-09-30T10:48:21.923Z,3.53
2022-09-30T10:50:53.920Z,3.57
2022-09-30T10:53:25.256Z,3.63
2022-09-30T10:55:54.330Z,3.37
2022-09-30T10:58:28.960Z,3.60
2022-09-30T11:01:15.658Z,2.90
2022-09-30T11:04:12.987Z,3.20
2022-09-30T11:06:44.701Z,3.53
2022-09-30T11:09:37.975Z,3.13
2022-09-30T11:12:35.856Z,3.30
2022-09-30T11:15:10.694Z,3.27
2022-09-30T11:17:49.099Z,2.73
2022-09-30T11:20:39.143Z,3.40
2022-09-30T11:23:27.488Z,3.40
2022-09-30T11:26:02.362Z,3.00
2022-09-30T11:28:47.353Z,3.30
2022-09-30T11:31:31.231Z,3.27
2022-09-30T11:34:19.491Z,3.33
2022-09-30T11:37:02.852Z,3.00
2022-09-30T11:39:29.650Z,3.40
2022-09-30T11:42:15.849Z,2.90
2022-09-30T11:44:44.781Z,2.93
2022-09-30T11:47:23.782Z,3.03
2022-09-30T11:50:29.017Z,3.10
2022-09-30T11:53:02.327Z,3.17
2022-09-30T11:55:47.345Z,3.30
2022-09-30T11:58:40.392Z,2.80
2022-09-30T12:01:28.673Z,3.27
2022-09-30T12:04:12.369Z,3.10
2022-09-30T12:06:52.815Z,2.87
2022-09-30T12:09:24.581Z,2.97
2022-09-30T12:12:15.339Z,2.77
2022-09-30T12:14:53.687Z,2.40
2022-09-30T12:17:32.590Z,2.77
2022-09-30T12:20:22.070Z,2.80
2022-09-30T12:22:51.681Z,2.60
2022-09-30T12:25:37.909Z,2.57
2022-09-30T12:28:50.975Z,3.07
2022-09-30T12:31:51.928Z,3.13
2022-09-30T12:34:57.396Z,2.87
2022-09-30T12:37:48.893Z,2.40
2022-09-30T12:40:36.936Z,2.83
2022-09-30T12:43:33.939Z,2.33
2022-09-30T12:46:18.585Z,2.80
2022-09-30T12:48:55.966Z,2.70
2022-09-30T12:51:34.454Z,2.23
2022-09-30T12:54:22.034Z,2.43
2022-09-30T12:57:00.598Z,2.47
2022-09-30T12:59:33.843Z,2.60
2022-09-30T13:02:05.001Z,2.40
2022-09-30T13:04:47.700Z,2.40
2022-09-30T13:07:25.693Z,2.33
2022-09-30T13:10:04.933Z,2.50
2022-09-30T13:12:46.780Z,2.60
2022-09-30T13:15:28.397Z,2.50
2022-09-30T13:17:57.746Z,2.57
2022-09-30T13:20:49.192Z,2.40
2022-09-30T13:23:50.751Z,2.27
2022-09-30T13:26:29.476Z,2.40
2022-09-30T13:29:07.328Z,2.37
2022-09-30T13:31:45.999Z,2.43
2022-09-30T13:34:23.966Z,2.20
2022-09-30T13:36:50.727Z,2.10
2022-09-30T13:39:19.355Z,2.40
2022-09-30T13:41:55.754Z,2.50
2022-09-30T13:44:59.489Z,2.20
2022-09-30T13:47:34.168Z,2.27
2022-09-30T13:50:00.976Z,2.30
2022-09-30T13:52:38.992Z,2.17
2022-09-30T13:55:20.070Z,1.90
2022-09-30T13:58:26.888Z,2.00
2022-09-30T14:01:32.511Z,2.50
2022-09-30T14:04:12.164Z,2.10
2022-09-30T14:07:20.998Z,2.50
2022-09-30T14:10:00.548Z,2.27
2022-09-30T14:12:46.761Z,2.50
2022-09-30T14:15:45.331Z,2.40
2022-09-30T14:18:48.296Z,2.37
2022-09-30T14:21:50.456Z,2.40
2022-09-30T14:24:26.542Z,2.30
2022-09-30T14:27:18.531Z,2.50
2022-09-30T14:30:17.770Z,2.03
2022-09-30T14:33:20.892Z,2.17
2022-09-30T14:35:51.222Z,2.30
2022-09-30T14:38:32.067Z,1.90
2022-09-30T14:41:08.290Z,2.27
2022-09-30T14:43:42.945Z,1.93
2022-09-30T14:46:30.066Z,2.00
2022-09-30T14:49:07.748Z,1.93
2022-09-30T14:51:43.437Z,2.07
2022-09-30T14:54:30.967Z,2.27
2022-09-30T14:57:00.582Z,2.43
2022-09-30T14:59:36.074Z,2.13
2022-09-30T15:02:12.813Z,2.10
2022-09-30T15:04:50.766Z,2.33
2022-09-30T15:07:20.051Z,1.90
2022-09-30T15:09:53.016Z,2.10
2022-09-30T15:12:23.069Z,2.30
2022-09-30T15:14:55.852Z,2.20
2022-09-30T15:17:29.356Z,1.90
2022-09-30T15:19:58.078Z,1.93
2022-09-30T15:22:28.470Z,2.23
2022-09-30T15:24:57.276Z,2.10
2022-09-30T15:27:33.162Z,2.03
2022-09-30T15:30:21.798Z,2.00
2022-09-30T15:32:51.387Z,1.80
2022-09-30T15:35:23.497Z,1.73
2022-09-30T15:37:51.863Z,1.90
2022-09-30T15:40:41.066Z,2.20
2022-09-30T15:43:11.340Z,1.80
2022-09-30T15:45:41.415Z,1.87
2022-09-30T15:48:26.449Z,2.43
2022-09-30T15:50:56.355Z,2.00
2022-09-30T15:53:31.483Z,2.40
2022-09-30T15:56:17.131Z,1.90
2022-09-30T15:59:01.501Z,1.90
2022-09-30T16:01:42.987Z,1.80
2022-09-30T16:04:11.091Z,1.80
2022-09-30T16:06:43.925Z,1.90
2022-09-30T16:09:31.780Z,1.90
2022-09-30T16:12:18.202Z,1.83
2022-09-30T16:14:53.817Z,2.20
2022-09-30T16:17:26.601Z,1.83
2022-09-30T16:19:54.797Z,1.80
2022-09-30T16:22:42.744Z,1.90
2022-09-30T16:25:31.032Z,2.27
2022-09-30T16:28:02.262Z,1.83
2022-09-30T16:30:32.138Z,2.13
2022-09-30T16:33:03.874Z,2.20
2022-09-30T16:35:31.094Z,1.87
2022-09-30T16:38:01.426Z,2.00
2022-09-30T16:40:29.848Z,2.00
2022-09-30T16:42:58.732Z,2.00
2022-09-30T16:45:27.375Z,2.00
2022-09-30T16:47:56.046Z,1.93
2022-09-30T16:50:31.195Z,1.80
2022-09-30T16:52:57.996Z,1.97
2022-09-30T16:55:27.128Z,1.97
2022-09-30T16:57:58.073Z,2.20
2022-09-30T17:00:26.835Z,1.70
2022-09-30T17:02:54.057Z,2.13
2022-09-30T17:05:23.221Z,1.60
2022-09-30T17:07:58.738Z,1.90
2022-09-30T17:10:26.382Z,1.80
2022-09-30T17:12:53.564Z,1.90
2022-09-30T17:15:21.258Z,1.90
2022-09-30T17:17:49.101Z,1.90
2022-09-30T17:20:16.055Z,1.80
2022-09-30T17:22:44.524Z,2.00
2022-09-30T17:25:11.639Z,1.90
2022-09-30T17:27:38.911Z,1.90
2022-09-30T17:30:06.791Z,2.00
2022-09-30T17:32:33.662Z,1.93
2022-09-30T17:35:00.515Z,1.60
2022-09-30T17:37:30.403Z,1.90
2022-09-30T17:39:57.423Z,1.93
2022-09-30T17:42:42.765Z,1.97
2022-09-30T17:45:10.053Z,1.87
2022-09-30T17:47:39.622Z,1.90
2022-09-30T17:50:07.343Z,1.87
2022-09-30T17:52:34.450Z,1.90
2022-09-30T17:55:01.600Z,1.83
2022-09-30T17:57:28.461Z,1.60
2022-09-30T17:59:58.794Z,1.70
2022-09-30T18:02:25.753Z,2.00
2022-09-30T18:04:54.383Z,2.07
2022-09-30T18:07:23.830Z,1.70
2022-09-30T18:09:51.137Z,1.80
2022-09-30T18:12:17.957Z,1.80
2022-09-30T18:14:45.178Z,1.50
2022-09-30T18:17:12.148Z,1.60
2022-09-30T18:19:38.983Z,2.00
2022-09-30T18:22:06.142Z,1.60
2022-09-30T18:24:51.611Z,2.00
2022-09-30T18:27:21.188Z,1.80
2022-09-30T18:29:49.010Z,1.90
2022-09-30T18:32:17.525Z,2.17
2022-09-30T18:34:44.392Z,1.70
2022-09-30T18:37:11.628Z,1.60
2022-09-30T18:39:38.699Z,2.07
2022-09-30T18:42:05.810Z,1.70
2022-09-30T18:44:32.709Z,1.83
2022-09-30T18:46:59.959Z,1.63
2022-09-30T18:49:26.915Z,1.70
2022-09-30T18:51:53.750Z,1.60
2022-09-30T18:54:20.856Z,2.00
2022-09-30T18:56:47.737Z,1.97
2022-09-30T18:59:18.248Z,1.80
2022-09-30T19:01:49.357Z,1.80
2022-09-30T19:04:16.384Z,1.97
2022-09-30T19:06:44.892Z,1.80
2022-09-30T19:09:11.799Z,1.77
2022-09-30T19:11:42.740Z,1.70
2022-09-30T19:14:12.485Z,1.83
2022-09-30T19:16:40.460Z,1.70
2022-09-30T19:19:10.426Z,1.60
2022-09-30T19:21:38.806Z,1.90
2022-09-30T19:24:07.516Z,1.87
2022-09-30T19:26:40.282Z,1.63
2022-09-30T19:29:09.750Z,2.00
2022-09-30T19:31:37.503Z,1.80
2022-09-30T19:34:05.385Z,1.63
2022-09-30T19:36:42.475Z,1.83
2022-09-30T19:39:14.121Z,1.73
2022-09-30T19:41:41.315Z,1.80
2022-09-30T19:44:08.095Z,1.60
2022-09-30T19:46:34.931Z,2.00
2022-09-30T19:49:02.105Z,1.90
2022-09-30T19:51:31.096Z,1.80
2022-09-30T19:54:06.024Z,1.70
2022-09-30T19:56:36.556Z,1.73
2022-09-30T19:59:04.046Z,1.63
2022-09-30T20:01:34.306Z,1.83
2022-09-30T20:04:05.177Z,1.80
2022-09-30T20:06:33.547Z,1.60
2022-09-30T20:09:03.272Z,1.90
2022-09-30T20:11:36.475Z,1.80
2022-09-30T20:14:24.218Z,1.80
2022-09-30T20:16:51.644Z,1.70
2022-09-30T20:19:19.200Z,1.50
2022-09-30T20:21:46.813Z,1.60
2022-09-30T20:24:16.172Z,1.60
2022-09-30T20:26:44.504Z,2.00
2022-09-30T20:29:12.230Z,2.03
2022-09-30T20:31:41.482Z,1.73
2022-09-30T20:34:11.956Z,1.70
2022-09-30T20:36:40.336Z,1.50
2022-09-30T20:39:08.105Z,1.60
2022-09-30T20:41:36.955Z,1.70
2022-09-30T20:44:12.120Z,1.80
2022-09-30T20:46:41.485Z,1.67
2022-09-30T20:49:08.802Z,1.77
2022-09-30T20:51:36.073Z,1.80
2022-09-30T20:54:11.406Z,1.87
2022-09-30T20:57:02.780Z,1.70
2022-09-30T20:59:30.370Z,1.67
2022-09-30T21:02:00.285Z,1.70
2022-09-30T21:04:27.163Z,1.70
2022-09-30T21:06:56.094Z,1.50
2022-09-30T21:09:25.403Z,1.73
2022-09-30T21:11:54.417Z,1.70
2022-09-30T21:14:21.191Z,1.67
2022-09-30T21:16:48.113Z,1.60
2022-09-30T21:19:17.714Z,1.53
2022-09-30T21:21:44.847Z,1.77
2022-09-30T21:24:19.056Z,1.60
2022-09-30T21:26:48.764Z,1.50
2022-09-30T21:29:15.599Z,1.90
2022-09-30T21:31:42.526Z,1.50
2022-09-30T21:34:16.479Z,1.50
2022-09-30T21:36:43.337Z,1.90
2022-09-30T21:39:17.808Z,1.60
2022-09-30T21:41:47.683Z,1.50
2022-09-30T21:44:15.407Z,1.60
2022-09-30T21:46:48.027Z,1.63
2022-09-30T21:49:25.412Z,1.57
2022-09-30T21:51:55.714Z,2.03
2022-09-30T21:54:25.481Z,1.63
2022-09-30T21:56:55.346Z,1.70
2022-09-30T21:59:25.450Z,1.83
2022-09-30T22:01:55.535Z,1.77
2022-09-30T22:04:23.668Z,1.70
2022-09-30T22:06:50.492Z,1.80
2022-09-30T22:09:26.242Z,1.57
2022-09-30T22:11:53.707Z,1.70
2022-09-30T22:14:20.522Z,1.60
2022-09-30T22:16:48.278Z,1.70
2022-09-30T22:19:15.381Z,1.83
2022-09-30T22:21:42.228Z,1.53
2022-09-30T22:24:19.733Z,1.40
2022-09-30T22:26:49.333Z,1.73
2022-09-30T22:29:21.453Z,1.70
2022-09-30T22:31:51.017Z,1.50
2022-09-30T22:34:39.754Z,1.70
2022-09-30T22:37:25.110Z,1.73
2022-09-30T22:40:00.709Z,1.60
2022-09-30T22:42:30.329Z,1.47
2022-09-30T22:44:57.184Z,1.50
2022-09-30T22:47:29.512Z,1.60
2022-09-30T22:50:01.853Z,1.60
2022-09-30T22:52:35.017Z,1.60
2022-09-30T22:55:05.203Z,1.83
2022-09-30T22:57:32.064Z,3.90
2022-09-30T23:00:03.885Z,1.60
2022-09-30T23:02:35.875Z,1.60
2022-09-30T23:05:03.130Z,1.53
2022-09-30T23:07:30.595Z,1.50
2022-09-30T23:09:57.641Z,1.63
2022-09-30T23:12:26.756Z,1.80
2022-09-30T23:15:01.222Z,1.40
2022-09-30T23:17:30.813Z,1.60
2022-09-30T23:20:02.653Z,1.63
2022-09-30T23:22:32.089Z,1.50
2022-09-30T23:25:02.683Z,1.63
2022-09-30T23:27:29.656Z,1.60
2022-09-30T23:29:59.246Z,1.70
2022-09-30T23:32:28.301Z,1.60
2022-09-30T23:34:57.565Z,1.60
2022-09-30T23:37:29.411Z,1.50
2022-09-30T23:39:56.170Z,1.43
2022-09-30T23:42:23.103Z,1.60
2022-09-30T23:44:53.546Z,1.50
2022-09-30T23:47:21.451Z,1.80
2022-09-30T23:49:54.273Z,1.77
2022-09-30T23:52:24.177Z,1.70
2022-09-30T23:54:56.707Z,1.80
2022-09-30T23:57:26.375Z,1.40
2022-09-30T23:59:58.548Z,1.40
